Time;durP1;ratioP1;P1;durP2;ratioP2;P2;SDS_P1;SDS_P2;PMS_P1;PMS_P2;Temp;Humidity;BMP_temperature;BMP_pressure;BME280_temperature;BME280_humidity;BME280_pressure;Samples;Min_cycle;Max_cycle;Signal;HPM_P1;HPM_P2
2023/07/31 00:00:05;;;;;;;74.03;27.07;;;16.90;99.90;;;;;;6243078;23;20412;-74
2023/07/31 00:02:32;;;;;;;73.77;26.30;;;16.90;99.90;;;;;;6242610;23;20415;-75
2023/07/31 00:04:58;;;;;;;73.10;26.00;;;16.80;99.90;;;;;;6242502;23;20408;-75
2023/07/31 00:07:26;;;;;;;71.80;25.47;;;16.80;99.90;;;;;;6242463;23;20919;-74
2023/07/31 00:09:54;;;;;;;73.03;27.00;;;16.80;99.90;;;;;;6242924;23;20412;-74
2023/07/31 00:12:21;;;;;;;69.13;26.27;;;16.80;99.90;;;;;;6242725;23;20431;-74
2023/07/31 00:14:47;;;;;;;74.50;25.10;;;16.80;99.90;;;;;;6242637;23;20431;-74
2023/07/31 00:17:14;;;;;;;70.90;26.20;;;16.70;99.90;;;;;;6242791;23;20408;-75
2023/07/31 00:19:41;;;;;;;70.30;25.73;;;16.60;99.90;;;;;;6242388;23;20885;-75
2023/07/31 00:22:07;;;;;;;71.40;26.40;;;16.60;99.90;;;;;;6242498;23;20412;-75
2023/07/31 00:24:35;;;;;;;73.63;25.30;;;16.60;99.90;;;;;;6242506;23;20420;-74
2023/07/31 00:27:02;;;;;;;70.80;24.20;;;16.50;99.90;;;;;;6242670;23;20415;-73
2023/07/31 00:29:29;;;;;;;68.30;24.73;;;16.60;99.90;;;;;;6242025;23;20443;-74
2023/07/31 00:31:55;;;;;;;67.60;25.07;;;16.50;99.90;;;;;;6242579;23;20519;-75
2023/07/31 00:34:22;;;;;;;70.07;26.80;;;16.50;99.90;;;;;;6241852;22;20439;-75
2023/07/31 00:36:49;;;;;;;72.27;26.20;;;16.50;99.90;;;;;;6242355;23;20422;-75
2023/07/31 00:39:16;;;;;;;69.60;25.20;;;16.50;99.90;;;;;;6242911;23;20415;-75
2023/07/31 00:41:44;;;;;;;70.90;26.77;;;16.50;99.90;;;;;;6242457;23;20414;-75
2023/07/31 00:44:11;;;;;;;73.40;27.23;;;16.40;99.90;;;;;;6242537;23;20432;-74
2023/07/31 00:46:38;;;;;;;70.50;26.07;;;16.40;99.90;;;;;;6241847;23;20851;-74
2023/07/31 00:49:06;;;;;;;69.60;25.77;;;16.30;99.90;;;;;;6242494;23;20439;-74
2023/07/31 00:51:33;;;;;;;67.83;26.03;;;16.30;99.90;;;;;;6242454;23;20408;-74
2023/07/31 00:54:00;;;;;;;67.67;25.83;;;16.40;99.90;;;;;;6242752;23;20439;-74
2023/07/31 00:56:28;;;;;;;67.63;25.33;;;16.40;99.90;;;;;;6241949;23;20911;-73
2023/07/31 00:58:56;;;;;;;71.13;26.70;;;16.40;99.90;;;;;;6242163;23;20884;-73
2023/07/31 01:01:23;;;;;;;70.57;27.47;;;16.40;99.90;;;;;;6241930;23;20420;-73
2023/07/31 01:03:53;;;;;;;68.90;25.77;;;16.40;99.90;;;;;;6242302;23;20403;-73
2023/07/31 01:06:31;;;;;;;72.70;26.20;;;16.30;99.90;;;;;;6242344;23;20414;-72
2023/07/31 01:09:02;;;;;;;71.13;26.80;;;16.30;99.90;;;;;;6242575;23;20428;-73
2023/07/31 01:11:31;;;;;;;71.47;26.97;;;16.20;99.90;;;;;;6242696;23;20388;-74
2023/07/31 01:14:00;;;;;;;72.97;27.40;;;16.30;99.90;;;;;;6242575;23;20412;-74
2023/07/31 01:16:27;;;;;;;69.40;27.30;;;16.30;99.90;;;;;;6242374;23;20404;-74
2023/07/31 01:18:54;;;;;;;68.90;26.77;;;16.30;99.90;;;;;;6242536;23;20767;-74
2023/07/31 01:21:33;;;;;;;69.30;26.73;;;16.30;99.90;;;;;;6242823;23;20408;-74
2023/07/31 01:24:21;;;;;;;70.17;27.13;;;16.30;99.90;;;;;;6242554;23;20391;-73
2023/07/31 01:26:57;;;;;;;70.67;26.00;;;16.20;99.90;;;;;;6242785;23;20507;-73
2023/07/31 01:29:32;;;;;;;70.40;26.30;;;16.30;99.90;;;;;;6242356;23;20423;-74
2023/07/31 01:32:02;;;;;;;71.13;25.87;;;16.30;99.90;;;;;;6242366;23;20391;-73
2023/07/31 01:34:30;;;;;;;69.77;25.23;;;16.40;99.90;;;;;;6242100;23;20987;-73
2023/07/31 01:36:57;;;;;;;67.60;24.40;;;16.40;99.90;;;;;;6242587;23;20445;-73
2023/07/31 01:39:24;;;;;;;72.50;25.53;;;16.40;99.90;;;;;;6242939;23;20408;-73
2023/07/31 01:41:52;;;;;;;68.47;26.30;;;16.40;99.90;;;;;;6242854;23;20411;-73
2023/07/31 01:44:19;;;;;;;72.13;27.33;;;16.30;99.90;;;;;;6242309;23;20407;-73
2023/07/31 01:46:45;;;;;;;69.03;25.67;;;16.30;99.90;;;;;;6242391;23;20414;-73
2023/07/31 01:49:12;;;;;;;69.00;27.17;;;16.20;99.90;;;;;;6242571;23;20560;-73
2023/07/31 01:51:39;;;;;;;71.77;26.80;;;16.20;99.90;;;;;;6242139;23;20416;-73
2023/07/31 01:54:06;;;;;;;68.87;27.27;;;16.10;99.90;;;;;;6241862;23;20423;-73
2023/07/31 01:56:32;;;;;;;70.77;27.63;;;16.10;99.90;;;;;;6242384;23;20535;-73
2023/07/31 01:59:00;;;;;;;70.43;26.80;;;16.00;99.90;;;;;;6242274;23;20412;-74
2023/07/31 02:01:27;;;;;;;70.70;26.13;;;16.10;99.90;;;;;;6242477;23;20511;-75
2023/07/31 02:03:54;;;;;;;69.07;27.17;;;16.10;99.90;;;;;;6242004;23;20575;-75
2023/07/31 02:06:20;;;;;;;71.83;27.87;;;16.00;99.90;;;;;;6242151;23;20419;-74
2023/07/31 02:08:47;;;;;;;72.90;26.70;;;16.00;99.90;;;;;;6242409;23;20443;-75
2023/07/31 02:11:14;;;;;;;73.00;27.80;;;15.90;99.90;;;;;;6243137;23;20400;-75
2023/07/31 02:13:40;;;;;;;70.87;27.43;;;15.90;99.90;;;;;;6243670;23;20428;-75
2023/07/31 02:16:08;;;;;;;69.90;27.13;;;15.80;99.90;;;;;;6243362;23;20891;-75
2023/07/31 02:18:35;;;;;;;68.90;27.20;;;15.70;99.90;;;;;;6243669;23;20735;-75
2023/07/31 02:21:02;;;;;;;74.27;27.70;;;15.60;99.90;;;;;;6243913;23;20404;-75
2023/07/31 02:23:28;;;;;;;77.40;28.83;;;15.60;99.90;;;;;;6243672;23;20444;-75
2023/07/31 02:25:55;;;;;;;72.17;28.90;;;15.50;99.90;;;;;;6243653;23;20407;-76
2023/07/31 02:28:22;;;;;;;78.23;29.80;;;15.50;99.90;;;;;;6242962;23;20526;-76
2023/07/31 02:30:50;;;;;;;71.77;29.70;;;15.60;99.90;;;;;;6243449;23;20781;-74
2023/07/31 02:33:18;;;;;;;73.67;28.97;;;15.60;99.90;;;;;;6242587;23;20781;-75
2023/07/31 02:35:45;;;;;;;72.77;28.90;;;15.70;99.90;;;;;;6243348;23;20415;-74
2023/07/31 02:38:12;;;;;;;73.37;29.03;;;15.70;99.90;;;;;;6243354;23;20522;-75
2023/07/31 02:40:39;;;;;;;73.10;27.47;;;15.70;99.90;;;;;;6243153;23;20415;-75
2023/07/31 02:43:06;;;;;;;73.47;28.17;;;15.80;99.90;;;;;;6243256;23;20411;-76
2023/07/31 02:45:33;;;;;;;70.37;27.20;;;15.80;99.90;;;;;;6242587;23;20935;-76
2023/07/31 02:47:59;;;;;;;71.20;29.07;;;15.80;99.90;;;;;;6243160;23;20785;-73
2023/07/31 02:50:28;;;;;;;70.20;27.40;;;15.80;99.90;;;;;;6242966;23;20407;-73
2023/07/31 02:52:55;;;;;;;72.70;26.47;;;15.90;99.90;;;;;;6242961;23;20434;-73
2023/07/31 02:55:21;;;;;;;68.70;26.37;;;15.90;99.90;;;;;;6243000;23;20407;-73
2023/07/31 02:57:48;;;;;;;68.47;27.33;;;15.90;99.90;;;;;;6242843;23;20412;-73
2023/07/31 03:00:15;;;;;;;80.90;28.33;;;15.90;99.90;;;;;;6242466;23;20896;-75
2023/07/31 03:02:42;;;;;;;71.50;26.53;;;15.90;99.90;;;;;;6242184;23;20408;-74
2023/07/31 03:05:09;;;;;;;69.97;27.80;;;15.90;99.90;;;;;;6242589;23;20446;-76
2023/07/31 03:07:37;;;;;;;70.43;26.77;;;15.90;99.90;;;;;;6242671;23;20404;-74
2023/07/31 03:10:04;;;;;;;70.77;26.60;;;15.80;99.90;;;;;;6242928;23;20443;-74
2023/07/31 03:12:30;;;;;;;70.10;26.20;;;15.80;99.90;;;;;;6243118;23;20431;-74
2023/07/31 03:14:57;;;;;;;70.67;26.67;;;15.80;99.90;;;;;;6243141;23;20450;-74
2023/07/31 03:17:24;;;;;;;70.57;27.10;;;15.80;99.90;;;;;;6242640;23;20963;-74
2023/07/31 03:19:50;;;;;;;70.13;27.07;;;15.80;99.90;;;;;;6242805;23;20407;-76
2023/07/31 03:22:17;;;;;;;71.33;27.20;;;15.80;99.90;;;;;;6243547;23;20412;-74
2023/07/31 03:24:45;;;;;;;73.33;26.83;;;15.80;99.90;;;;;;6243259;23;20754;-74
2023/07/31 03:27:12;;;;;;;71.80;28.00;;;15.80;99.90;;;;;;6243122;23;20418;-76
2023/07/31 03:29:38;;;;;;;70.80;27.10;;;15.80;99.90;;;;;;6242854;23;20790;-74
2023/07/31 03:32:06;;;;;;;69.80;26.20;;;15.80;99.90;;;;;;6243029;23;20411;-74
2023/07/31 03:34:32;;;;;;;72.13;27.90;;;15.90;99.90;;;;;;6242818;23;20490;-74
2023/07/31 03:36:59;;;;;;;75.73;27.60;;;15.90;99.90;;;;;;6242975;23;20404;-75
2023/07/31 03:39:26;;;;;;;70.27;26.07;;;15.90;99.90;;;;;;6243198;23;20396;-75
2023/07/31 03:41:54;;;;;;;68.90;25.77;;;15.80;99.90;;;;;;6242834;23;20400;-74
2023/07/31 03:44:20;;;;;;;71.23;26.10;;;15.90;99.90;;;;;;6243209;23;20404;-74
2023/07/31 03:46:47;;;;;;;68.53;26.13;;;15.80;99.90;;;;;;6243348;23;20410;-74
2023/07/31 03:49:14;;;;;;;69.70;25.93;;;15.90;99.90;;;;;;6243037;23;20436;-75
2023/07/31 03:51:41;;;;;;;70.20;25.93;;;15.90;99.90;;;;;;6242571;23;20414;-75
2023/07/31 03:54:08;;;;;;;68.87;26.70;;;15.80;99.90;;;;;;6242935;23;20407;-75
2023/07/31 03:56:35;;;;;;;68.87;27.00;;;15.80;99.90;;;;;;6242941;23;20404;-75
2023/07/31 03:59:03;;;;;;;69.80;26.40;;;15.80;99.90;;;;;;6243018;23;20695;-73
2023/07/31 04:01:29;;;;;;;73.13;27.13;;;15.90;99.90;;;;;;6243206;23;20400;-74
2023/07/31 04:03:56;;;;;;;70.57;28.20;;;15.90;99.90;;;;;;6242715;23;20408;-74
2023/07/31 04:06:23;;;;;;;75.43;29.13;;;15.90;99.90;;;;;;6243075;23;20779;-75
2023/07/31 04:08:50;;;;;;;72.70;28.40;;;16.00;99.90;;;;;;6241978;23;20482;-75
2023/07/31 04:11:17;;;;;;;73.67;28.07;;;16.10;99.90;;;;;;6242820;23;20419;-75
2023/07/31 04:13:43;;;;;;;72.57;28.90;;;16.10;99.90;;;;;;6242408;23;20408;-75
2023/07/31 04:16:11;;;;;;;72.90;28.50;;;16.20;99.90;;;;;;6242782;23;20539;-76
2023/07/31 04:18:38;;;;;;;79.67;29.40;;;16.20;99.90;;;;;;6242565;23;20408;-74
2023/07/31 04:21:05;;;;;;;78.20;27.57;;;16.20;99.90;;;;;;6241780;23;20871;-75
2023/07/31 04:23:32;;;;;;;69.13;27.27;;;16.30;99.90;;;;;;6241857;23;20443;-75
2023/07/31 04:25:58;;;;;;;73.30;26.60;;;16.40;99.90;;;;;;6242216;23;20411;-75
2023/07/31 04:28:25;;;;;;;71.37;25.50;;;16.40;99.90;;;;;;6241258;23;20938;-75
2023/07/31 04:30:52;;;;;;;71.17;25.30;;;16.50;99.90;;;;;;6240698;23;20415;-74
2023/07/31 04:33:20;;;;;;;68.97;26.13;;;16.50;99.90;;;;;;6241007;23;20451;-75
2023/07/31 04:35:52;;;;;;;70.40;25.10;;;16.60;99.90;;;;;;6241965;23;20908;-75
2023/07/31 04:38:18;;;;;;;70.30;25.17;;;16.60;99.90;;;;;;6242919;23;20450;-74
2023/07/31 04:40:45;;;;;;;69.07;24.70;;;16.70;99.90;;;;;;6242475;23;20507;-76
2023/07/31 04:43:12;;;;;;;69.20;26.23;;;16.70;99.90;;;;;;6242779;23;20404;-73
2023/07/31 04:45:38;;;;;;;70.33;26.03;;;16.70;99.90;;;;;;6242808;23;20415;-75
2023/07/31 04:48:06;;;;;;;70.40;26.30;;;16.70;99.90;;;;;;6242442;23;20420;-73
2023/07/31 04:50:34;;;;;;;73.70;25.43;;;16.70;99.90;;;;;;6242877;23;20443;-77
2023/07/31 04:53:00;;;;;;;72.60;28.17;;;16.70;99.90;;;;;;6242760;23;20706;-77
2023/07/31 04:55:27;;;;;;;71.50;27.50;;;16.70;99.90;;;;;;6242619;23;20404;-74
2023/07/31 04:57:54;;;;;;;72.77;27.10;;;16.80;99.90;;;;;;6242166;23;20418;-76
2023/07/31 05:00:20;;;;;;;71.10;27.20;;;16.80;99.90;;;;;;6238630;22;20396;-75
2023/07/31 05:02:47;;;;;;;69.97;26.60;;;16.80;99.90;;;;;;6237173;23;20434;-75
2023/07/31 05:05:14;;;;;;;70.70;27.57;;;16.90;99.90;;;;;;6242723;23;20411;-75
2023/07/31 05:07:42;;;;;;;75.37;27.50;;;16.90;99.90;;;;;;6242697;23;20407;-76
2023/07/31 05:10:09;;;;;;;69.87;26.57;;;16.80;99.90;;;;;;6242575;23;20454;-77
2023/07/31 05:12:36;;;;;;;73.60;28.00;;;16.70;99.90;;;;;;6242157;23;20950;-73
2023/07/31 05:15:03;;;;;;;69.40;26.03;;;16.70;99.90;;;;;;6242235;23;20416;-76
2023/07/31 05:17:30;;;;;;;70.13;27.97;;;16.70;99.90;;;;;;6242046;23;20404;-76
2023/07/31 05:19:56;;;;;;;69.50;25.70;;;16.80;99.90;;;;;;6244472;23;20403;-74
2023/07/31 05:22:23;;;;;;;71.73;25.37;;;16.90;99.90;;;;;;6243884;23;20411;-74
2023/07/31 05:24:51;;;;;;;69.70;26.60;;;16.80;99.90;;;;;;6242988;23;20400;-74
2023/07/31 05:27:18;;;;;;;71.30;25.87;;;16.80;99.90;;;;;;6242388;23;20404;-74
2023/07/31 05:29:45;;;;;;;71.40;25.93;;;16.80;99.90;;;;;;6243511;23;20435;-76
2023/07/31 05:32:11;;;;;;;70.67;26.50;;;16.70;99.90;;;;;;6242832;23;20418;-74
2023/07/31 05:34:38;;;;;;;73.83;26.47;;;16.70;99.90;;;;;;6242440;23;20455;-75
2023/07/31 05:37:06;;;;;;;74.20;26.37;;;16.70;99.90;;;;;;6240638;23;20491;-75
2023/07/31 05:39:33;;;;;;;71.40;26.93;;;16.80;99.90;;;;;;6241909;23;20419;-77
2023/07/31 05:42:01;;;;;;;70.60;26.53;;;17.00;99.90;;;;;;6240957;23;20412;-76
2023/07/31 05:44:28;;;;;;;69.83;25.83;;;17.20;99.90;;;;;;6244343;23;20408;-77
2023/07/31 05:46:55;;;;;;;74.17;25.30;;;17.50;99.90;;;;;;6244636;23;20400;-76
2023/07/31 05:49:21;;;;;;;71.83;25.20;;;17.70;99.90;;;;;;6244286;23;20440;-77
2023/07/31 05:51:48;;;;;;;70.47;25.70;;;17.90;99.90;;;;;;6244142;23;20410;-77
2023/07/31 05:54:15;;;;;;;71.37;25.10;;;18.10;99.90;;;;;;6244789;23;20430;-78
2023/07/31 05:56:41;;;;;;;70.73;26.17;;;18.20;99.90;;;;;;6244370;23;20404;-78
2023/07/31 05:59:13;;;;;;;68.50;24.20;;;18.60;99.90;;;;;;6244356;23;20400;-79
2023/07/31 06:01:39;;;;;;;68.77;24.20;;;19.30;99.90;;;;;;6244140;23;20724;-78
2023/07/31 06:04:06;;;;;;;67.27;24.43;;;19.50;99.90;;;;;;6244315;23;20411;-77
2023/07/31 06:06:33;;;;;;;66.73;24.73;;;19.50;99.90;;;;;;6244609;23;20426;-77
2023/07/31 06:08:59;;;;;;;70.60;25.40;;;19.50;99.90;;;;;;6244500;23;20713;-77
2023/07/31 06:11:26;;;;;;;66.23;23.53;;;19.70;99.90;;;;;;6243536;23;20412;-77
2023/07/31 06:13:53;;;;;;;67.23;24.70;;;19.80;99.90;;;;;;6244229;23;20404;-78
2023/07/31 06:16:21;;;;;;;69.27;25.57;;;20.00;99.90;;;;;;6244156;23;20404;-78
2023/07/31 06:18:48;;;;;;;68.30;25.20;;;20.10;99.90;;;;;;6244301;23;20427;-78
2023/07/31 06:21:14;;;;;;;65.80;23.80;;;20.30;99.90;;;;;;6245115;23;20737;-80
2023/07/31 06:23:41;;;;;;;67.47;24.50;;;20.40;99.90;;;;;;6244697;23;20403;-78
2023/07/31 06:26:08;;;;;;;67.20;24.50;;;20.80;99.90;;;;;;6244678;23;20404;-79
2023/07/31 06:28:35;;;;;;;66.60;24.83;;;21.00;99.90;;;;;;6244229;23;20411;-78
2023/07/31 06:31:02;;;;;;;68.83;24.43;;;21.40;99.90;;;;;;6244142;23;20424;-78
2023/07/31 06:33:30;;;;;;;67.00;24.97;;;21.40;99.90;;;;;;6244070;22;20432;-76
2023/07/31 06:35:57;;;;;;;70.60;24.47;;;21.80;99.90;;;;;;6244035;23;20415;-79
2023/07/31 06:38:26;;;;;;;66.67;24.80;;;21.90;99.90;;;;;;6244457;23;20426;-77
2023/07/31 06:40:53;;;;;;;71.13;22.83;;;22.30;99.20;;;;;;6244084;23;20507;-77
2023/07/31 06:43:20;;;;;;;69.33;24.40;;;22.30;98.90;;;;;;6244663;23;20557;-76
2023/07/31 06:45:48;;;;;;;68.00;24.07;;;22.00;99.10;;;;;;6244781;23;20411;-76
2023/07/31 06:48:15;;;;;;;67.27;23.63;;;22.00;99.30;;;;;;6244395;23;20423;-77
2023/07/31 06:50:43;;;;;;;67.50;23.93;;;21.90;99.70;;;;;;6243764;23;20443;-78
2023/07/31 06:53:09;;;;;;;67.10;24.10;;;22.60;98.60;;;;;;6244056;23;20431;-79
2023/07/31 06:55:37;;;;;;;67.20;24.53;;;23.40;97.50;;;;;;6243381;23;20411;-78
2023/07/31 06:58:03;;;;;;;70.03;24.47;;;24.10;96.40;;;;;;6244084;23;20713;-77
2023/07/31 07:00:30;;;;;;;67.77;24.80;;;24.50;94.20;;;;;;6243819;23;20401;-77
2023/07/31 07:02:57;;;;;;;66.03;25.20;;;24.90;93.60;;;;;;6244136;23;20446;-77
2023/07/31 07:05:24;;;;;;;69.63;24.27;;;25.30;92.30;;;;;;6243803;23;20411;-77
2023/07/31 07:07:52;;;;;;;67.20;24.67;;;25.20;92.30;;;;;;6243490;23;20931;-77
2023/07/31 07:10:19;;;;;;;66.90;25.03;;;25.40;91.80;;;;;;6243579;23;20502;-78
2023/07/31 07:12:45;;;;;;;67.93;23.33;;;25.10;91.70;;;;;;6243938;23;20426;-76
2023/07/31 07:15:12;;;;;;;66.87;23.50;;;25.60;91.30;;;;;;6244374;23;20404;-76
2023/07/31 07:17:39;;;;;;;66.50;24.00;;;25.50;91.10;;;;;;6243552;23;20407;-76
2023/07/31 07:20:07;;;;;;;66.00;25.20;;;25.60;90.50;;;;;;6243137;23;20906;-76
2023/07/31 07:22:34;;;;;;;65.60;24.60;;;26.20;90.10;;;;;;6243756;23;20785;-77
2023/07/31 07:25:02;;;;;;;70.00;25.50;;;27.20;86.60;;;;;;6243616;23;20400;-76
2023/07/31 07:27:29;;;;;;;65.50;24.97;;;27.50;84.30;;;;;;6243809;23;20415;-76
2023/07/31 07:29:56;;;;;;;65.30;24.53;;;27.10;85.30;;;;;;6243131;23;20447;-77
2023/07/31 07:32:23;;;;;;;66.50;24.73;;;27.00;84.90;;;;;;6243704;23;20780;-75
2023/07/31 07:34:50;;;;;;;64.60;24.50;;;26.80;83.90;;;;;;6243105;23;20440;-75
2023/07/31 07:37:17;;;;;;;64.67;24.30;;;26.80;84.80;;;;;;6243653;23;20403;-75
2023/07/31 07:39:44;;;;;;;68.23;26.20;;;26.80;84.70;;;;;;6243483;23;20404;-76
2023/07/31 07:42:12;;;;;;;67.07;25.13;;;26.40;84.90;;;;;;6243569;23;20454;-76
2023/07/31 07:44:39;;;;;;;67.50;24.47;;;25.90;86.10;;;;;;6243458;23;20430;-75
2023/07/31 07:47:06;;;;;;;69.90;24.80;;;25.60;87.60;;;;;;6243374;23;20400;-76
2023/07/31 07:49:34;;;;;;;69.53;26.17;;;25.10;88.00;;;;;;6243270;23;20400;-76
2023/07/31 07:52:00;;;;;;;69.33;24.33;;;24.80;90.00;;;;;;6243407;23;20408;-75
2023/07/31 07:54:27;;;;;;;66.07;25.70;;;24.70;89.40;;;;;;6243291;23;20404;-75
2023/07/31 07:56:54;;;;;;;76.67;27.30;;;24.80;90.40;;;;;;6243272;23;20411;-75
2023/07/31 07:59:22;;;;;;;67.33;24.07;;;25.30;88.50;;;;;;6242817;23;20404;-75
2023/07/31 08:01:49;;;;;;;68.80;25.37;;;25.60;87.00;;;;;;6243286;23;20403;-74
2023/07/31 08:04:15;;;;;;;68.57;25.10;;;25.30;87.40;;;;;;6243455;23;20844;-76
2023/07/31 08:06:42;;;;;;;67.97;25.30;;;25.30;87.60;;;;;;6243211;23;20404;-76
2023/07/31 08:09:09;;;;;;;67.23;25.00;;;25.20;86.80;;;;;;6243210;23;20412;-76
2023/07/31 08:11:36;;;;;;;66.00;24.87;;;25.10;87.60;;;;;;6243996;23;20447;-76
2023/07/31 08:14:02;;;;;;;66.37;24.50;;;25.00;87.90;;;;;;6247117;23;20407;-74
2023/07/31 08:16:30;;;;;;;67.50;25.07;;;24.70;88.60;;;;;;6244677;23;20414;-75
2023/07/31 08:18:57;;;;;;;66.70;26.13;;;24.90;88.10;;;;;;6244092;23;20408;-74
2023/07/31 08:21:24;;;;;;;66.10;24.50;;;25.50;86.50;;;;;;6243412;23;20400;-74
2023/07/31 08:23:51;;;;;;;67.10;25.43;;;25.60;86.00;;;;;;6243271;23;20430;-75
2023/07/31 08:26:18;;;;;;;69.50;25.67;;;25.80;85.20;;;;;;6243387;23;20415;-75
2023/07/31 08:28:44;;;;;;;67.30;25.40;;;25.70;84.00;;;;;;6243192;23;20404;-76
2023/07/31 08:31:12;;;;;;;67.70;25.13;;;26.00;84.00;;;;;;6242733;23;20451;-76
2023/07/31 08:33:41;;;;;;;66.37;25.57;;;26.00;82.90;;;;;;6242489;22;20432;-76
2023/07/31 08:36:07;;;;;;;66.93;25.40;;;27.00;79.80;;;;;;6242814;23;20440;-77
2023/07/31 08:38:34;;;;;;;66.50;26.03;;;27.50;78.40;;;;;;6242506;23;20400;-76
2023/07/31 08:41:01;;;;;;;68.37;26.67;;;28.50;75.80;;;;;;6242947;23;20395;-75
2023/07/31 08:43:28;;;;;;;68.90;26.80;;;29.10;73.30;;;;;;6242976;23;20730;-75
2023/07/31 08:45:55;;;;;;;64.73;26.20;;;29.00;72.30;;;;;;6242808;23;20400;-75
2023/07/31 08:48:23;;;;;;;65.90;27.80;;;28.30;73.20;;;;;;6242985;23;20719;-76
2023/07/31 08:50:52;;;;;;;66.63;26.10;;;27.90;74.20;;;;;;6242545;23;20443;-75
2023/07/31 08:53:18;;;;;;;66.20;27.30;;;28.20;76.00;;;;;;6242853;23;20403;-75
2023/07/31 08:55:47;;;;;;;66.83;26.60;;;28.90;73.30;;;;;;6242749;23;20884;-76
2023/07/31 08:58:14;;;;;;;64.63;26.37;;;29.20;72.20;;;;;;6243025;23;20879;-76
2023/07/31 09:00:43;;;;;;;66.10;27.03;;;29.50;71.30;;;;;;6242964;23;20400;-75
2023/07/31 09:03:14;;;;;;;66.17;26.53;;;29.50;69.70;;;;;;6242885;23;20473;-75
2023/07/31 09:05:43;;;;;;;65.50;26.83;;;29.40;70.20;;;;;;6242949;23;20408;-75
2023/07/31 09:08:13;;;;;;;68.63;27.50;;;28.70;71.50;;;;;;6242651;23;20407;-75
2023/07/31 09:10:41;;;;;;;65.17;26.53;;;28.70;72.80;;;;;;6242692;23;20466;-76
2023/07/31 09:13:09;;;;;;;66.27;27.33;;;28.20;72.80;;;;;;6242530;23;20427;-75
2023/07/31 09:15:36;;;;;;;67.20;26.87;;;27.50;74.90;;;;;;6242596;23;20404;-75
2023/07/31 09:18:04;;;;;;;66.60;25.90;;;26.70;76.40;;;;;;6243838;23;20411;-74
2023/07/31 09:20:31;;;;;;;68.90;27.97;;;26.50;77.70;;;;;;6244918;23;20408;-76
2023/07/31 09:23:06;;;;;;;67.20;26.10;;;26.60;78.10;;;;;;6245139;23;20432;-75
2023/07/31 09:25:34;;;;;;;65.97;26.60;;;27.80;75.30;;;;;;6245288;23;20394;-76
2023/07/31 09:28:02;;;;;;;68.50;28.10;;;28.60;74.30;;;;;;6244728;23;20407;-75
2023/07/31 09:30:29;;;;;;;66.70;27.60;;;28.60;71.90;;;;;;6244770;23;20447;-75
2023/07/31 09:33:02;;;;;;;70.40;27.00;;;28.10;74.10;;;;;;6244218;23;20442;-75
2023/07/31 09:35:31;;;;;;;67.57;27.60;;;28.80;72.80;;;;;;6244749;23;20400;-75
2023/07/31 09:38:00;;;;;;;65.87;28.07;;;29.70;70.80;;;;;;6244656;23;20475;-75
2023/07/31 09:40:29;;;;;;;69.80;27.80;;;30.50;69.40;;;;;;6244224;23;20404;-76
2023/07/31 09:42:59;;;;;;;67.20;28.10;;;30.70;67.60;;;;;;6244454;23;20403;-75
2023/07/31 09:45:26;;;;;;;66.20;26.47;;;30.50;65.50;;;;;;6244248;23;20380;-75
2023/07/31 09:47:53;;;;;;;68.07;26.97;;;29.70;68.20;;;;;;6244150;23;20491;-76
2023/07/31 09:50:22;;;;;;;65.90;25.77;;;28.70;70.70;;;;;;6244079;23;20851;-75
2023/07/31 09:52:49;;;;;;;67.10;25.67;;;27.90;73.30;;;;;;6244617;23;20474;-75
2023/07/31 09:55:16;;;;;;;65.27;24.50;;;27.30;74.00;;;;;;6244770;23;20670;-75
2023/07/31 09:57:45;;;;;;;67.50;26.60;;;26.90;74.90;;;;;;6244005;23;20412;-76
2023/07/31 10:00:15;;;;;;;70.67;26.40;;;26.80;75.70;;;;;;6243980;23;20911;-75
2023/07/31 10:02:42;;;;;;;69.13;26.10;;;26.60;77.60;;;;;;6243948;23;20395;-74
2023/07/31 10:05:09;;;;;;;66.80;26.43;;;27.30;75.90;;;;;;6244505;23;20408;-75
2023/07/31 10:07:39;;;;;;;68.07;26.30;;;28.00;74.50;;;;;;6243843;23;20411;-75
2023/07/31 10:10:08;;;;;;;67.00;25.20;;;28.00;72.70;;;;;;6244207;23;20404;-75
2023/07/31 10:12:35;;;;;;;68.13;26.70;;;27.70;74.60;;;;;;6244029;23;20447;-76
2023/07/31 10:15:02;;;;;;;69.13;26.87;;;27.30;74.70;;;;;;6244551;23;20408;-75
2023/07/31 10:17:31;;;;;;;69.13;26.80;;;26.00;78.30;;;;;;6244471;23;20490;-75
2023/07/31 10:19:59;;;;;;;70.80;28.90;;;25.90;79.70;;;;;;6244673;23;20400;-75
2023/07/31 10:22:26;;;;;;;66.80;26.50;;;26.50;78.90;;;;;;6244040;23;20404;-74
2023/07/31 10:24:55;;;;;;;66.87;26.93;;;26.60;80.10;;;;;;6243903;23;20484;-75
2023/07/31 10:27:22;;;;;;;73.47;27.70;;;27.20;77.00;;;;;;6244010;23;20401;-76
2023/07/31 10:29:49;;;;;;;67.00;25.83;;;26.60;77.30;;;;;;6243790;23;20404;-75
2023/07/31 10:32:17;;;;;;;68.63;26.03;;;26.60;79.30;;;;;;6244217;23;20436;-74
2023/07/31 10:34:46;;;;;;;66.20;27.43;;;27.10;77.20;;;;;;6243718;23;20427;-76
2023/07/31 10:37:27;;;;;;;67.20;25.83;;;27.20;76.00;;;;;;6243848;23;20411;-76
2023/07/31 10:39:58;;;;;;;68.07;27.20;;;27.10;75.80;;;;;;6243955;23;20514;-75
2023/07/31 10:42:32;;;;;;;65.87;27.73;;;27.40;74.50;;;;;;6244052;23;20396;-76
2023/07/31 10:45:00;;;;;;;66.70;28.37;;;28.20;73.10;;;;;;6243900;23;20384;-75
2023/07/31 10:47:27;;;;;;;65.90;27.27;;;28.50;71.60;;;;;;6244020;23;20404;-76
2023/07/31 10:50:12;;;;;;;66.60;26.97;;;28.50;72.30;;;;;;6243823;23;20404;-76
2023/07/31 10:52:39;;;;;;;68.77;27.30;;;28.70;71.30;;;;;;6244080;23;20431;-75
2023/07/31 10:55:23;;;;;;;66.00;26.97;;;28.70;71.80;;;;;;6243764;23;20411;-76
2023/07/31 10:57:49;;;;;;;68.03;27.83;;;28.60;73.70;;;;;;6243900;23;20400;-75
2023/07/31 11:00:21;;;;;;;65.30;26.80;;;29.10;71.50;;;;;;6244000;23;20423;-76
2023/07/31 11:02:58;;;;;;;71.87;26.90;;;29.20;70.30;;;;;;6243687;23;20896;-75
2023/07/31 11:05:45;;;;;;;72.60;29.70;;;29.40;69.90;;;;;;6243602;23;20388;-75
2023/07/31 11:08:17;;;;;;;69.27;31.20;;;30.90;66.70;;;;;;6243560;23;20395;-76
2023/07/31 11:10:45;;;;;;;67.57;28.30;;;31.10;64.20;;;;;;6244231;23;20410;-75
2023/07/31 11:13:13;;;;;;;66.77;28.13;;;30.40;65.20;;;;;;6243924;23;20430;-74
2023/07/31 11:15:40;;;;;;;66.10;27.80;;;29.50;67.50;;;;;;6243718;23;20411;-76
2023/07/31 11:18:08;;;;;;;66.40;28.80;;;29.30;67.10;;;;;;6243692;23;20408;-76
2023/07/31 11:20:37;;;;;;;65.33;27.67;;;29.00;67.70;;;;;;6243340;23;20938;-75
2023/07/31 11:23:05;;;;;;;66.53;27.23;;;28.40;69.70;;;;;;6243419;23;20407;-75
2023/07/31 11:25:32;;;;;;;66.37;28.03;;;28.30;70.20;;;;;;6243488;23;20411;-75
2023/07/31 11:28:04;;;;;;;66.97;28.20;;;28.10;70.50;;;;;;6243170;23;20407;-74
2023/07/31 11:30:31;;;;;;;70.90;28.07;;;27.80;72.10;;;;;;6243580;23;20393;-76
2023/07/31 11:32:58;;;;;;;65.60;27.73;;;27.90;72.10;;;;;;6243133;23;20452;-75
2023/07/31 11:35:24;;;;;;;66.20;28.73;;;27.90;72.20;;;;;;6243419;23;20388;-75
2023/07/31 11:37:52;;;;;;;66.60;28.20;;;28.10;72.70;;;;;;6243410;23;20408;-75
2023/07/31 11:40:19;;;;;;;66.90;28.30;;;28.10;72.00;;;;;;6243246;23;20730;-74
2023/07/31 11:42:46;;;;;;;70.33;28.37;;;27.80;72.60;;;;;;6243075;23;20396;-75
2023/07/31 11:45:13;;;;;;;69.20;28.07;;;27.70;73.40;;;;;;6242836;23;20919;-75
2023/07/31 11:47:39;;;;;;;69.30;27.60;;;27.50;73.20;;;;;;6243311;23;20408;-76
2023/07/31 11:50:10;;;;;;;68.27;26.50;;;27.40;73.60;;;;;;6243240;23;20407;-74
2023/07/31 11:52:40;;;;;;;65.50;25.90;;;27.30;74.80;;;;;;6243312;23;20424;-74
2023/07/31 11:55:10;;;;;;;68.97;26.73;;;27.00;75.40;;;;;;6243165;23;20411;-75
2023/07/31 11:57:38;;;;;;;69.30;28.87;;;27.10;74.80;;;;;;6243116;23;20736;-75
2023/07/31 12:00:07;;;;;;;68.00;27.57;;;27.10;73.60;;;;;;6243140;23;20411;-74
2023/07/31 12:02:33;;;;;;;67.87;26.70;;;27.00;75.50;;;;;;6242880;23;20400;-75
2023/07/31 12:05:00;;;;;;;66.30;28.70;;;27.40;75.30;;;;;;6243029;23;20404;-75
2023/07/31 12:07:27;;;;;;;67.33;28.33;;;27.60;74.90;;;;;;6242984;23;20884;-73
2023/07/31 12:09:54;;;;;;;69.20;29.20;;;28.10;73.10;;;;;;6242806;23;20604;-76
2023/07/31 12:12:23;;;;;;;65.80;26.47;;;28.00;73.60;;;;;;6242418;23;20458;-75
2023/07/31 12:14:50;;;;;;;74.13;29.47;;;27.60;74.40;;;;;;6242688;23;20404;-75
2023/07/31 12:17:19;;;;;;;69.30;28.17;;;27.40;73.80;;;;;;6242282;23;20896;-75
2023/07/31 12:19:46;;;;;;;65.97;27.83;;;27.30;77.10;;;;;;6242554;23;20408;-76
2023/07/31 12:22:14;;;;;;;67.10;27.43;;;27.50;75.60;;;;;;6242774;23;20445;-75
2023/07/31 12:24:41;;;;;;;65.87;27.30;;;27.70;75.40;;;;;;6242932;23;20404;-74
2023/07/31 12:27:11;;;;;;;68.10;27.20;;;27.30;75.40;;;;;;6242743;23;20407;-76
2023/07/31 12:29:40;;;;;;;67.77;26.70;;;26.80;77.30;;;;;;6242375;23;21099;-74